Terminal Aerodrome Forecast
Issued by NWS

Home | Current Version | Previous Version | Text Only | Print | Product List | Glossary On
Versions: 1 2 3 4 5 6 7 8 9 10 11 12 13 14 15
010
FTUS43 KGRR 210540
TAFBTL
TAF
KBTL 210540Z 2106/2206 14012KT P6SM OVC200 WS020/21035KT
     FM211200 20008KT 3SM -SHRA BR OVC035
     FM211400 22008KT 2SM -SHRA BR OVC020
     FM211600 25008KT 5SM BR OVC019
     FM212000 26008KT P6SM BKN050
     FM220200 22004KT 4SM BR BKN250=

USA.gov is the U.S. government's official web portal to all federal, state and local government web resources and services.